createdAt,value
2022-11-25T00:02:55.900Z,7.05
2022-11-25T00:05:58.659Z,7.08
2022-11-25T00:09:05.635Z,7.09
2022-11-25T00:12:08.469Z,7.13
2022-11-25T00:15:11.192Z,7.08
2022-11-25T00:18:13.797Z,7.03
2022-11-25T00:21:18.782Z,7.09
2022-11-25T00:24:22.787Z,7.06
2022-11-25T00:27:25.399Z,7.04
2022-11-25T00:30:28.050Z,7.04
2022-11-25T00:33:30.660Z,7.02
2022-11-25T00:36:35.217Z,7.08
2022-11-25T00:39:39.160Z,7.06
2022-11-25T00:42:59.245Z,7.08
2022-11-25T00:46:01.915Z,7.06
2022-11-25T00:49:04.589Z,7.06
2022-11-25T00:52:07.834Z,7.04
2022-11-25T00:55:11.852Z,7.03
2022-11-25T00:58:14.461Z,7.02
2022-11-25T01:01:17.113Z,6.97
2022-11-25T01:04:19.786Z,6.93
2022-11-25T01:07:22.485Z,7.02
2022-11-25T01:10:26.498Z,7.06
2022-11-25T01:13:29.183Z,7.03
2022-11-25T01:16:32.051Z,7.04
2022-11-25T01:19:38.246Z,7.00
2022-11-25T01:22:40.883Z,7.00
2022-11-25T01:25:44.831Z,7.00
2022-11-25T01:28:48.402Z,6.96
2022-11-25T01:31:51.580Z,6.95
2022-11-25T01:34:54.260Z,6.98
2022-11-25T01:37:56.918Z,6.94
2022-11-25T01:41:01.621Z,6.90
2022-11-25T01:44:06.512Z,6.91
2022-11-25T01:47:16.006Z,6.94
2022-11-25T01:50:22.361Z,6.86
2022-11-25T01:53:25.161Z,6.78
2022-11-25T01:56:33.048Z,6.84
2022-11-25T01:59:40.503Z,6.84
2022-11-25T02:02:43.757Z,6.79
2022-11-25T02:05:52.503Z,6.81
2022-11-25T02:08:59.430Z,6.83
2022-11-25T02:12:04.588Z,6.79
2022-11-25T02:15:08.797Z,6.82
2022-11-25T02:18:11.463Z,6.73
2022-11-25T02:21:16.502Z,6.85
2022-11-25T02:24:25.521Z,6.90
2022-11-25T02:27:30.024Z,6.91
2022-11-25T02:30:32.768Z,6.91
2022-11-25T02:33:35.422Z,6.98
2022-11-25T02:36:38.391Z,6.98
2022-11-25T02:39:41.100Z,7.00
2022-11-25T02:42:45.656Z,6.98
2022-11-25T02:45:57.424Z,7.07
2022-11-25T02:49:08.958Z,6.97
2022-11-25T02:52:12.170Z,7.06
2022-11-25T02:55:14.803Z,6.99
2022-11-25T02:58:19.546Z,7.03
2022-11-25T03:01:22.777Z,7.01
2022-11-25T03:04:25.419Z,7.00
2022-11-25T03:07:28.130Z,6.90
2022-11-25T03:10:31.343Z,6.91
2022-11-25T03:13:35.467Z,6.75
2022-11-25T03:16:38.241Z,6.82
2022-11-25T03:19:41.058Z,6.65
2022-11-25T03:22:44.097Z,6.87
2022-11-25T03:25:46.725Z,6.86
2022-11-25T03:28:50.654Z,6.82
2022-11-25T03:31:53.351Z,6.86
2022-11-25T03:34:56.020Z,6.77
2022-11-25T03:37:58.628Z,6.77
2022-11-25T03:41:01.380Z,6.79
2022-11-25T03:44:05.417Z,6.74
2022-11-25T03:47:08.061Z,6.64
2022-11-25T03:50:13.608Z,6.64
2022-11-25T03:53:16.228Z,6.63
2022-11-25T03:56:18.827Z,6.53
2022-11-25T03:59:22.857Z,6.54
2022-11-25T04:02:25.588Z,6.48
2022-11-25T04:05:28.263Z,6.46
2022-11-25T04:08:30.894Z,6.41
2022-11-25T04:11:47.630Z,6.48
2022-11-25T04:14:51.645Z,6.42
2022-11-25T04:17:54.316Z,6.51
2022-11-25T04:20:56.997Z,6.47
2022-11-25T04:23:59.631Z,6.46
2022-11-25T04:27:02.254Z,6.45
2022-11-25T04:30:07.718Z,6.40
2022-11-25T04:33:10.347Z,6.43
2022-11-25T04:36:12.945Z,6.23
2022-11-25T04:39:15.571Z,6.32
2022-11-25T04:42:33.144Z,6.37
2022-11-25T04:45:59.024Z,6.45
2022-11-25T04:48:59.714Z,6.37
2022-11-25T04:52:02.379Z,6.41
2022-11-25T04:55:06.797Z,6.45
2022-11-25T04:58:10.904Z,6.40
2022-11-25T05:01:14.006Z,6.47
2022-11-25T05:04:16.658Z,6.37
2022-11-25T05:07:21.944Z,6.37
2022-11-25T05:10:24.784Z,6.36
2022-11-25T05:13:27.715Z,6.44
2022-11-25T05:16:31.786Z,6.47
2022-11-25T05:19:36.267Z,6.34
2022-11-25T05:22:38.984Z,6.41
2022-11-25T05:25:41.593Z,6.27
2022-11-25T05:28:44.259Z,6.29
2022-11-25T05:31:48.246Z,6.37
2022-11-25T05:34:50.888Z,6.35
2022-11-25T05:37:53.491Z,6.40
2022-11-25T05:41:02.233Z,6.49
2022-11-25T05:44:05.304Z,6.44
2022-11-25T05:47:10.019Z,6.44
2022-11-25T05:50:12.685Z,6.39
2022-11-25T05:53:17.249Z,6.33
2022-11-25T05:56:19.844Z,6.37
2022-11-25T05:59:22.477Z,6.29
2022-11-25T06:02:26.560Z,6.37
2022-11-25T06:05:29.233Z,6.40
2022-11-25T06:08:31.920Z,6.42
2022-11-25T06:11:34.767Z,6.45
2022-11-25T06:14:37.586Z,6.49
2022-11-25T06:17:41.861Z,6.58
2022-11-25T06:20:45.702Z,6.55
2022-11-25T06:23:48.628Z,6.55
2022-11-25T06:26:51.239Z,6.56
2022-11-25T06:29:53.850Z,6.58
2022-11-25T06:32:57.828Z,6.59
2022-11-25T06:36:00.523Z,6.65
2022-11-25T06:39:03.168Z,6.64
2022-11-25T06:42:05.943Z,6.68
2022-11-25T06:45:09.838Z,6.72
2022-11-25T06:48:13.809Z,6.73
2022-11-25T06:51:17.297Z,6.65
2022-11-25T06:54:19.910Z,6.68
2022-11-25T06:57:22.565Z,6.62
2022-11-25T07:00:25.344Z,6.64
2022-11-25T07:03:29.679Z,6.67
2022-11-25T07:06:33.451Z,6.67
2022-11-25T07:09:36.085Z,6.80
2022-11-25T07:12:38.707Z,6.75
2022-11-25T07:15:41.396Z,6.78
2022-11-25T07:18:45.555Z,6.76
2022-11-25T07:21:48.318Z,6.83
2022-11-25T07:24:50.963Z,6.82
2022-11-25T07:27:53.554Z,6.66
2022-11-25T07:34:21.761Z,6.82
2022-11-25T07:37:24.391Z,6.83
2022-11-25T07:40:27.066Z,6.66
2022-11-25T07:43:29.753Z,6.82
2022-11-25T07:46:35.569Z,6.85
2022-11-25T07:49:39.860Z,6.81
2022-11-25T07:52:42.509Z,6.90
2022-11-25T07:55:46.215Z,6.93
2022-11-25T07:58:49.634Z,6.90
2022-11-25T08:01:53.485Z,6.82
2022-11-25T08:04:57.509Z,6.89
2022-11-25T08:08:00.164Z,6.87
2022-11-25T08:11:06.590Z,6.88
2022-11-25T08:14:10.226Z,6.78
2022-11-25T08:17:12.885Z,6.93
2022-11-25T08:20:17.019Z,6.93
2022-11-25T08:23:19.676Z,6.90
2022-11-25T08:26:25.657Z,7.04
2022-11-25T08:29:28.383Z,6.86
2022-11-25T08:32:30.987Z,7.03
2022-11-25T08:35:37.852Z,7.10
2022-11-25T08:38:42.067Z,7.17
2022-11-25T08:41:44.691Z,7.17
2022-11-25T08:44:47.364Z,7.30
2022-11-25T08:47:50.024Z,7.22
2022-11-25T08:50:55.536Z,7.35
2022-11-25T08:53:58.630Z,7.42
2022-11-25T08:57:01.455Z,7.27
2022-11-25T09:00:05.460Z,7.45
2022-11-25T09:03:08.335Z,7.53
2022-11-25T09:06:13.384Z,7.43
2022-11-25T09:09:16.171Z,7.52
2022-11-25T09:12:18.843Z,7.73
2022-11-25T09:15:21.541Z,7.78
2022-11-25T09:18:26.144Z,7.82
2022-11-25T09:21:30.106Z,7.65
2022-11-25T09:24:32.721Z,7.82
2022-11-25T09:27:35.322Z,7.95
2022-11-25T09:30:38.298Z,7.95
2022-11-25T09:33:40.905Z,8.04
2022-11-25T09:36:46.212Z,8.06
2022-11-25T09:39:50.680Z,8.07
2022-11-25T09:43:17.282Z,7.94
2022-11-25T09:46:46.007Z,8.07
2022-11-25T09:50:04.035Z,8.04
2022-11-25T09:53:18.253Z,8.04
2022-11-25T09:56:29.533Z,7.91
2022-11-25T09:59:40.417Z,7.72
2022-11-25T10:02:48.923Z,7.79
2022-11-25T10:06:03.129Z,7.67
2022-11-25T10:09:15.100Z,7.70
2022-11-25T10:12:25.888Z,7.78
2022-11-25T10:15:34.396Z,7.85
2022-11-25T10:18:43.532Z,7.81
2022-11-25T10:21:47.160Z,7.76
2022-11-25T10:24:53.933Z,7.83
2022-11-25T10:28:00.204Z,7.86
2022-11-25T10:31:07.436Z,7.84
2022-11-25T10:34:16.988Z,7.77
2022-11-25T10:37:27.662Z,7.79
2022-11-25T10:40:31.822Z,7.85
2022-11-25T10:43:35.120Z,7.76
2022-11-25T10:47:12.441Z,7.55
2022-11-25T10:50:17.137Z,7.55
2022-11-25T10:53:25.347Z,7.77
2022-11-25T10:56:29.339Z,7.82
2022-11-25T10:59:34.179Z,7.83
2022-11-25T11:02:40.438Z,7.85
2022-11-25T11:05:48.735Z,7.73
2022-11-25T11:08:51.393Z,7.53
2022-11-25T11:11:55.407Z,7.73
2022-11-25T11:15:19.580Z,7.89
2022-11-25T11:18:26.582Z,7.81
2022-11-25T11:21:34.464Z,7.84
2022-11-25T11:24:37.924Z,7.84
2022-11-25T11:27:42.211Z,7.93
2022-11-25T11:30:56.481Z,8.06
2022-11-25T11:34:05.231Z,8.08
2022-11-25T11:37:22.980Z,8.17
2022-11-25T11:40:33.605Z,8.22
2022-11-25T11:43:50.286Z,8.19
2022-11-25T11:47:14.512Z,8.27
2022-11-25T11:50:27.318Z,8.13
2022-11-25T11:53:36.771Z,8.21
2022-11-25T11:56:42.955Z,8.31
2022-11-25T11:59:53.649Z,8.33
2022-11-25T12:03:05.140Z,8.35
2022-11-25T12:06:11.556Z,8.28
2022-11-25T12:09:20.449Z,8.28
2022-11-25T12:12:33.355Z,8.13
2022-11-25T12:15:46.340Z,8.26
2022-11-25T12:18:54.237Z,8.35
2022-11-25T12:22:05.262Z,8.31
2022-11-25T12:25:15.300Z,8.33
2022-11-25T12:28:22.133Z,8.31
2022-11-25T12:31:30.339Z,8.29
2022-11-25T12:34:40.943Z,8.31
2022-11-25T12:37:48.042Z,8.35
2022-11-25T12:40:58.044Z,8.37
2022-11-25T12:44:07.816Z,8.34
2022-11-25T12:47:12.749Z,8.36
2022-11-25T12:50:18.036Z,8.40
2022-11-25T12:53:30.025Z,8.42
2022-11-25T12:56:46.855Z,8.38
2022-11-25T13:00:39.294Z,8.39
2022-11-25T13:03:51.026Z,8.47
2022-11-25T13:07:17.902Z,8.24
2022-11-25T13:10:45.312Z,8.45
2022-11-25T13:13:53.547Z,8.47
2022-11-25T13:16:58.314Z,8.53
2022-11-25T13:20:33.064Z,8.60
2022-11-25T13:23:58.464Z,8.65
2022-11-25T13:27:02.373Z,8.64
2022-11-25T13:30:05.799Z,8.64
2022-11-25T13:33:44.438Z,8.67
2022-11-25T13:36:50.784Z,8.65
2022-11-25T13:40:32.778Z,8.72
2022-11-25T13:43:35.407Z,8.69
2022-11-25T13:46:40.999Z,8.66
2022-11-25T13:49:53.296Z,8.65
2022-11-25T13:53:01.523Z,8.64
2022-11-25T13:56:15.797Z,8.68
2022-11-25T13:59:37.353Z,8.67
2022-11-25T14:02:49.307Z,8.63
2022-11-25T14:06:05.226Z,8.66
2022-11-25T14:09:21.233Z,8.65
2022-11-25T14:12:51.027Z,8.63
2022-11-25T14:16:09.469Z,8.66
2022-11-25T14:19:55.346Z,8.73
2022-11-25T14:23:35.875Z,8.71
2022-11-25T14:26:56.166Z,8.73
2022-11-25T14:30:02.346Z,8.75
2022-11-25T14:33:09.269Z,8.76
2022-11-25T14:36:16.167Z,8.80
2022-11-25T14:39:25.805Z,8.85
2022-11-25T14:42:36.118Z,8.80
2022-11-25T14:45:39.022Z,8.81
2022-11-25T14:48:42.247Z,8.84
2022-11-25T14:51:48.584Z,8.78
2022-11-25T14:54:53.087Z,8.82
2022-11-25T14:57:57.282Z,8.84
2022-11-25T15:01:02.956Z,8.85
2022-11-25T15:04:08.372Z,8.86
2022-11-25T15:07:19.802Z,8.91
2022-11-25T15:10:42.445Z,8.89
2022-11-25T15:13:48.778Z,8.93
2022-11-25T15:16:51.853Z,8.85
2022-11-25T15:19:56.951Z,8.86
2022-11-25T15:22:59.591Z,8.82
2022-11-25T15:26:03.757Z,8.84
2022-11-25T15:29:13.509Z,8.85
2022-11-25T15:32:18.890Z,8.86
2022-11-25T15:35:23.956Z,8.89
2022-11-25T15:38:38.991Z,8.87
2022-11-25T15:41:43.504Z,8.88
2022-11-25T15:44:52.025Z,8.91
2022-11-25T15:47:54.777Z,8.90
2022-11-25T15:51:03.496Z,8.91
2022-11-25T15:54:15.125Z,8.94
2022-11-25T15:57:20.091Z,8.90
2022-11-25T16:00:25.212Z,8.94
2022-11-25T16:03:27.859Z,8.94
2022-11-25T16:06:30.979Z,8.95
2022-11-25T16:09:33.795Z,8.95
2022-11-25T16:12:36.458Z,8.94
2022-11-25T16:15:46.899Z,8.97
2022-11-25T16:19:12.450Z,9.00
2022-11-25T16:22:18.052Z,9.00
2022-11-25T16:25:20.808Z,9.00
2022-11-25T16:28:24.532Z,9.01
2022-11-25T16:31:28.696Z,9.00
2022-11-25T16:34:31.434Z,8.98
2022-11-25T16:37:34.116Z,8.98
2022-11-25T16:40:37.959Z,8.99
2022-11-25T16:43:40.600Z,9.00
2022-11-25T16:46:44.581Z,9.03
2022-11-25T16:49:47.470Z,9.00
2022-11-25T16:52:50.669Z,9.01
2022-11-25T16:55:53.320Z,9.00
2022-11-25T16:58:56.659Z,9.06
2022-11-25T17:02:02.402Z,9.07
2022-11-25T17:05:18.119Z,9.11
2022-11-25T17:08:20.777Z,9.08
2022-11-25T17:11:29.314Z,9.11
2022-11-25T17:14:34.596Z,9.11
2022-11-25T17:17:38.708Z,9.12
2022-11-25T17:20:41.471Z,9.16
2022-11-25T17:23:44.620Z,9.15
2022-11-25T17:26:49.724Z,9.14
2022-11-25T17:29:53.204Z,9.13
2022-11-25T17:33:01.896Z,9.15
2022-11-25T17:36:04.948Z,9.16
2022-11-25T17:39:07.625Z,9.18
2022-11-25T17:42:14.529Z,9.20
2022-11-25T17:45:19.600Z,9.19
2022-11-25T17:48:23.559Z,9.18
2022-11-25T17:51:26.206Z,9.21
2022-11-25T17:54:28.874Z,9.25
2022-11-25T17:57:31.511Z,9.24
2022-11-25T18:00:35.231Z,9.27
2022-11-25T18:03:39.258Z,9.25
2022-11-25T18:06:41.900Z,9.26
2022-11-25T18:09:45.139Z,9.29
2022-11-25T18:12:50.710Z,9.28
2022-11-25T18:15:53.612Z,9.29
2022-11-25T18:18:57.874Z,9.25
2022-11-25T18:22:02.180Z,9.25
2022-11-25T18:25:08.217Z,9.27
2022-11-25T18:28:17.636Z,9.29
2022-11-25T18:31:20.301Z,9.25
2022-11-25T18:34:25.063Z,9.28
2022-11-25T18:37:27.709Z,9.31
2022-11-25T18:40:30.974Z,9.32
2022-11-25T18:43:37.412Z,9.38
2022-11-25T18:46:40.674Z,9.35
2022-11-25T18:49:44.648Z,9.38
2022-11-25T18:52:47.687Z,9.37
2022-11-25T18:55:51.087Z,9.33
2022-11-25T18:58:53.855Z,9.36
2022-11-25T19:01:56.609Z,9.16
2022-11-25T19:05:00.754Z,9.27
2022-11-25T19:08:03.358Z,9.35
2022-11-25T19:11:07.321Z,9.35
2022-11-25T19:14:13.537Z,9.35
2022-11-25T19:17:20.897Z,9.27
2022-11-25T19:20:25.867Z,9.28
2022-11-25T19:23:29.034Z,9.28
2022-11-25T19:26:41.122Z,9.19
2022-11-25T19:29:44.938Z,9.24
2022-11-25T19:32:49.081Z,9.24
2022-11-25T19:35:53.541Z,9.25
2022-11-25T19:38:56.237Z,9.21
2022-11-25T19:41:58.856Z,9.24
2022-11-25T19:45:03.363Z,9.20
2022-11-25T19:48:08.728Z,9.29
2022-11-25T19:51:12.796Z,9.33
2022-11-25T19:54:17.205Z,9.29
2022-11-25T19:57:22.221Z,9.25
2022-11-25T20:00:25.901Z,9.22
2022-11-25T20:03:31.116Z,9.26
2022-11-25T20:06:35.272Z,9.30
2022-11-25T20:09:37.898Z,9.28
2022-11-25T20:12:40.742Z,9.31
2022-11-25T20:15:45.402Z,9.24
2022-11-25T20:18:48.495Z,9.32
2022-11-25T20:21:52.510Z,9.35
2022-11-25T20:24:56.467Z,9.34
2022-11-25T20:27:59.080Z,9.26
2022-11-25T20:31:01.739Z,9.11
2022-11-25T20:34:04.362Z,9.15
2022-11-25T20:37:09.924Z,9.24
2022-11-25T20:40:17.481Z,9.32
2022-11-25T20:43:28.719Z,9.38
2022-11-25T20:46:31.395Z,9.33
2022-11-25T20:49:34.074Z,9.36
2022-11-25T20:52:38.924Z,9.35
2022-11-25T20:55:42.079Z,9.35
2022-11-25T20:58:45.048Z,9.37
2022-11-25T21:01:47.798Z,9.28
2022-11-25T21:04:50.485Z,9.33
2022-11-25T21:07:55.183Z,9.33
2022-11-25T21:10:59.565Z,9.38
2022-11-25T21:14:02.179Z,9.37
2022-11-25T21:17:04.779Z,9.31
2022-11-25T21:20:09.166Z,9.34
2022-11-25T21:23:19.915Z,9.43
2022-11-25T21:26:26.088Z,9.43
2022-11-25T21:29:29.861Z,9.39
2022-11-25T21:32:32.506Z,9.44
2022-11-25T21:35:37.354Z,9.47
2022-11-25T21:38:41.356Z,9.51
2022-11-25T21:41:44.126Z,9.53
2022-11-25T21:44:47.796Z,9.55
2022-11-25T21:47:50.416Z,9.60
2022-11-25T21:50:53.803Z,9.62
2022-11-25T21:53:57.836Z,9.66
2022-11-25T21:57:00.596Z,9.61
2022-11-25T22:00:03.337Z,9.66
2022-11-25T22:03:11.488Z,9.66
2022-11-25T22:06:20.759Z,9.64
2022-11-25T22:09:26.627Z,9.59
2022-11-25T22:12:34.300Z,9.65
2022-11-25T22:15:39.476Z,9.66
2022-11-25T22:18:42.767Z,9.73
2022-11-25T22:21:45.429Z,9.33
2022-11-25T22:24:49.475Z,9.47
2022-11-25T22:27:52.500Z,9.60
2022-11-25T22:30:57.520Z,9.55
2022-11-25T22:34:00.156Z,9.51
2022-11-25T22:37:02.773Z,9.56
2022-11-25T22:40:08.289Z,9.44
2022-11-25T22:43:17.771Z,9.47
2022-11-25T22:46:20.544Z,9.48
2022-11-25T22:49:35.948Z,9.44
2022-11-25T22:52:38.834Z,9.34
2022-11-25T22:55:43.011Z,9.31
2022-11-25T22:58:46.303Z,9.27
2022-11-25T23:01:49.237Z,9.31
2022-11-25T23:04:54.903Z,9.25
2022-11-25T23:07:57.741Z,9.19
2022-11-25T23:11:01.878Z,9.16
2022-11-25T23:14:04.508Z,9.10
2022-11-25T23:17:13.329Z,9.11
2022-11-25T23:20:19.266Z,9.06
2022-11-25T23:23:24.324Z,8.98
2022-11-25T23:26:33.632Z,8.99
2022-11-25T23:29:37.630Z,8.92
2022-11-25T23:32:40.233Z,8.94
2022-11-25T23:35:42.880Z,8.92
2022-11-25T23:38:48.045Z,8.97
2022-11-25T23:41:52.682Z,8.97
2022-11-25T23:44:55.284Z,8.86
2022-11-25T23:47:58.248Z,8.85
2022-11-25T23:51:01.421Z,8.78
2022-11-25T23:54:04.177Z,8.81
2022-11-25T23:57:14.339Z,8.81
